sensor_id;sensor_type;location;lat;lon;timestamp;P1;durP1;ratioP1;P2;durP2;ratioP2
4519;SDS011;2272;49.226;8.108;2023-02-17T00:00:56;19.13;;;7.20;;
4519;SDS011;2272;49.226;8.108;2023-02-17T00:03:23;6.50;;;5.80;;
4519;SDS011;2272;49.226;8.108;2023-02-17T00:05:50;11.00;;;7.00;;
4519;SDS011;2272;49.226;8.108;2023-02-17T00:08:17;7.63;;;6.57;;
4519;SDS011;2272;49.226;8.108;2023-02-17T00:10:44;8.37;;;6.40;;
4519;SDS011;2272;49.226;8.108;2023-02-17T00:13:19;7.23;;;5.87;;
4519;SDS011;2272;49.226;8.108;2023-02-17T00:15:46;11.80;;;6.30;;
4519;SDS011;2272;49.226;8.108;2023-02-17T00:18:13;9.13;;;6.43;;
4519;SDS011;2272;49.226;8.108;2023-02-17T00:20:40;12.50;;;6.47;;
4519;SDS011;2272;49.226;8.108;2023-02-17T00:23:07;8.10;;;6.33;;
4519;SDS011;2272;49.226;8.108;2023-02-17T00:25:33;16.90;;;7.33;;
4519;SDS011;2272;49.226;8.108;2023-02-17T00:28:02;13.57;;;6.40;;
4519;SDS011;2272;49.226;8.108;2023-02-17T00:30:29;11.50;;;6.77;;
4519;SDS011;2272;49.226;8.108;2023-02-17T00:32:55;9.07;;;6.43;;
4519;SDS011;2272;49.226;8.108;2023-02-17T00:35:23;12.70;;;7.30;;
4519;SDS011;2272;49.226;8.108;2023-02-17T00:37:50;8.73;;;5.87;;
4519;SDS011;2272;49.226;8.108;2023-02-17T00:40:17;11.33;;;6.10;;
4519;SDS011;2272;49.226;8.108;2023-02-17T00:42:44;13.37;;;8.07;;
4519;SDS011;2272;49.226;8.108;2023-02-17T00:45:10;15.10;;;7.10;;
4519;SDS011;2272;49.226;8.108;2023-02-17T00:47:37;13.50;;;6.70;;
4519;SDS011;2272;49.226;8.108;2023-02-17T00:50:04;14.83;;;6.63;;
4519;SDS011;2272;49.226;8.108;2023-02-17T00:52:33;9.53;;;6.77;;
4519;SDS011;2272;49.226;8.108;2023-02-17T00:55:00;11.33;;;6.50;;
4519;SDS011;2272;49.226;8.108;2023-02-17T00:57:26;18.60;;;6.80;;
4519;SDS011;2272;49.226;8.108;2023-02-17T00:59:56;12.00;;;6.70;;
4519;SDS011;2272;49.226;8.108;2023-02-17T01:02:23;9.10;;;5.70;;
4519;SDS011;2272;49.226;8.108;2023-02-17T01:04:49;8.50;;;5.70;;
4519;SDS011;2272;49.226;8.108;2023-02-17T01:07:16;16.40;;;7.27;;
4519;SDS011;2272;49.226;8.108;2023-02-17T01:09:44;8.43;;;5.70;;
4519;SDS011;2272;49.226;8.108;2023-02-17T01:12:11;20.33;;;6.97;;
4519;SDS011;2272;49.226;8.108;2023-02-17T01:14:38;20.30;;;6.37;;
4519;SDS011;2272;49.226;8.108;2023-02-17T01:17:04;10.33;;;6.70;;
4519;SDS011;2272;49.226;8.108;2023-02-17T01:19:31;8.87;;;5.87;;
4519;SDS011;2272;49.226;8.108;2023-02-17T01:21:58;22.63;;;7.67;;
4519;SDS011;2272;49.226;8.108;2023-02-17T01:24:24;13.10;;;7.50;;
4519;SDS011;2272;49.226;8.108;2023-02-17T01:26:52;14.77;;;6.60;;
4519;SDS011;2272;49.226;8.108;2023-02-17T01:29:19;22.00;;;6.27;;
4519;SDS011;2272;49.226;8.108;2023-02-17T01:31:46;14.10;;;7.13;;
4519;SDS011;2272;49.226;8.108;2023-02-17T01:34:12;16.50;;;6.43;;
4519;SDS011;2272;49.226;8.108;2023-02-17T01:36:39;9.50;;;6.60;;
4519;SDS011;2272;49.226;8.108;2023-02-17T01:39:06;16.10;;;6.77;;
4519;SDS011;2272;49.226;8.108;2023-02-17T01:41:32;12.03;;;7.23;;
4519;SDS011;2272;49.226;8.108;2023-02-17T01:44:09;9.10;;;6.77;;
4519;SDS011;2272;49.226;8.108;2023-02-17T01:46:39;11.90;;;6.70;;
4519;SDS011;2272;49.226;8.108;2023-02-17T01:49:11;18.53;;;7.37;;
4519;SDS011;2272;49.226;8.108;2023-02-17T01:51:42;8.93;;;5.70;;
4519;SDS011;2272;49.226;8.108;2023-02-17T01:54:13;15.63;;;6.40;;
4519;SDS011;2272;49.226;8.108;2023-02-17T01:56:44;14.50;;;6.50;;
4519;SDS011;2272;49.226;8.108;2023-02-17T01:59:15;10.40;;;7.63;;
4519;SDS011;2272;49.226;8.108;2023-02-17T02:01:44;16.87;;;7.50;;
4519;SDS011;2272;49.226;8.108;2023-02-17T02:04:12;9.97;;;6.33;;
4519;SDS011;2272;49.226;8.108;2023-02-17T02:06:42;24.17;;;7.90;;
4519;SDS011;2272;49.226;8.108;2023-02-17T02:09:10;17.93;;;6.93;;
4519;SDS011;2272;49.226;8.108;2023-02-17T02:11:41;18.30;;;7.60;;
4519;SDS011;2272;49.226;8.108;2023-02-17T02:14:08;13.80;;;6.60;;
4519;SDS011;2272;49.226;8.108;2023-02-17T02:16:38;21.03;;;7.77;;
4519;SDS011;2272;49.226;8.108;2023-02-17T02:19:14;10.27;;;6.13;;
4519;SDS011;2272;49.226;8.108;2023-02-17T02:22:07;16.57;;;6.17;;
4519;SDS011;2272;49.226;8.108;2023-02-17T02:24:50;10.60;;;5.87;;
4519;SDS011;2272;49.226;8.108;2023-02-17T02:27:41;11.73;;;6.13;;
4519;SDS011;2272;49.226;8.108;2023-02-17T02:30:18;7.47;;;6.40;;
4519;SDS011;2272;49.226;8.108;2023-02-17T02:33:07;10.93;;;6.50;;
4519;SDS011;2272;49.226;8.108;2023-02-17T02:35:44;13.80;;;7.60;;
4519;SDS011;2272;49.226;8.108;2023-02-17T02:38:18;8.27;;;6.40;;
4519;SDS011;2272;49.226;8.108;2023-02-17T02:40:51;13.90;;;6.10;;
4519;SDS011;2272;49.226;8.108;2023-02-17T02:43:22;21.87;;;7.10;;
4519;SDS011;2272;49.226;8.108;2023-02-17T02:45:49;12.87;;;6.50;;
4519;SDS011;2272;49.226;8.108;2023-02-17T02:48:17;15.93;;;6.53;;
4519;SDS011;2272;49.226;8.108;2023-02-17T02:50:48;9.73;;;6.03;;
4519;SDS011;2272;49.226;8.108;2023-02-17T02:53:35;8.83;;;6.50;;
4519;SDS011;2272;49.226;8.108;2023-02-17T02:56:17;7.87;;;7.00;;
4519;SDS011;2272;49.226;8.108;2023-02-17T02:58:57;10.40;;;6.43;;
4519;SDS011;2272;49.226;8.108;2023-02-17T03:01:33;8.80;;;7.10;;
4519;SDS011;2272;49.226;8.108;2023-02-17T03:04:08;11.47;;;6.37;;
4519;SDS011;2272;49.226;8.108;2023-02-17T03:06:42;12.97;;;6.60;;
4519;SDS011;2272;49.226;8.108;2023-02-17T03:09:13;20.00;;;6.87;;
4519;SDS011;2272;49.226;8.108;2023-02-17T03:11:45;7.73;;;6.20;;
4519;SDS011;2272;49.226;8.108;2023-02-17T03:14:14;9.57;;;7.17;;
4519;SDS011;2272;49.226;8.108;2023-02-17T03:16:42;17.73;;;7.20;;
4519;SDS011;2272;49.226;8.108;2023-02-17T03:19:13;12.87;;;7.20;;
4519;SDS011;2272;49.226;8.108;2023-02-17T03:21:42;11.33;;;7.67;;
4519;SDS011;2272;49.226;8.108;2023-02-17T03:24:13;8.50;;;7.27;;
4519;SDS011;2272;49.226;8.108;2023-02-17T03:26:39;10.17;;;7.33;;
4519;SDS011;2272;49.226;8.108;2023-02-17T03:29:06;11.87;;;6.87;;
4519;SDS011;2272;49.226;8.108;2023-02-17T03:31:33;11.83;;;6.73;;
4519;SDS011;2272;49.226;8.108;2023-02-17T03:34:00;11.10;;;7.03;;
4519;SDS011;2272;49.226;8.108;2023-02-17T03:36:28;10.43;;;6.97;;
4519;SDS011;2272;49.226;8.108;2023-02-17T03:38:55;18.40;;;7.60;;
4519;SDS011;2272;49.226;8.108;2023-02-17T03:41:22;12.87;;;7.70;;
4519;SDS011;2272;49.226;8.108;2023-02-17T03:43:49;12.03;;;6.27;;
4519;SDS011;2272;49.226;8.108;2023-02-17T03:46:16;18.30;;;7.17;;
4519;SDS011;2272;49.226;8.108;2023-02-17T03:48:43;10.83;;;6.50;;
4519;SDS011;2272;49.226;8.108;2023-02-17T03:51:10;18.10;;;7.67;;
4519;SDS011;2272;49.226;8.108;2023-02-17T03:53:39;7.03;;;6.27;;
4519;SDS011;2272;49.226;8.108;2023-02-17T03:56:07;13.50;;;7.23;;
4519;SDS011;2272;49.226;8.108;2023-02-17T03:58:34;12.23;;;6.60;;
4519;SDS011;2272;49.226;8.108;2023-02-17T04:01:01;11.00;;;6.73;;
4519;SDS011;2272;49.226;8.108;2023-02-17T04:03:28;12.07;;;6.27;;
4519;SDS011;2272;49.226;8.108;2023-02-17T04:05:55;11.53;;;6.30;;
4519;SDS011;2272;49.226;8.108;2023-02-17T04:08:21;11.93;;;6.07;;
4519;SDS011;2272;49.226;8.108;2023-02-17T04:10:51;11.90;;;6.30;;
4519;SDS011;2272;49.226;8.108;2023-02-17T04:13:18;16.60;;;7.00;;
4519;SDS011;2272;49.226;8.108;2023-02-17T04:15:44;19.63;;;7.30;;
4519;SDS011;2272;49.226;8.108;2023-02-17T04:18:11;12.43;;;6.90;;
4519;SDS011;2272;49.226;8.108;2023-02-17T04:20:38;8.90;;;7.30;;
4519;SDS011;2272;49.226;8.108;2023-02-17T04:23:05;7.00;;;5.83;;
4519;SDS011;2272;49.226;8.108;2023-02-17T04:25:32;9.40;;;6.37;;
4519;SDS011;2272;49.226;8.108;2023-02-17T04:28:00;8.60;;;5.70;;
4519;SDS011;2272;49.226;8.108;2023-02-17T04:30:27;36.77;;;6.37;;
4519;SDS011;2272;49.226;8.108;2023-02-17T04:32:54;6.07;;;5.57;;
4519;SDS011;2272;49.226;8.108;2023-02-17T04:35:20;9.97;;;6.70;;
4519;SDS011;2272;49.226;8.108;2023-02-17T04:37:48;15.23;;;6.73;;
4519;SDS011;2272;49.226;8.108;2023-02-17T04:40:15;10.20;;;6.67;;
4519;SDS011;2272;49.226;8.108;2023-02-17T04:42:41;7.50;;;6.70;;
4519;SDS011;2272;49.226;8.108;2023-02-17T04:45:10;13.83;;;6.10;;
4519;SDS011;2272;49.226;8.108;2023-02-17T04:47:37;8.97;;;7.23;;
4519;SDS011;2272;49.226;8.108;2023-02-17T04:50:05;9.27;;;6.50;;
4519;SDS011;2272;49.226;8.108;2023-02-17T04:52:33;7.13;;;6.43;;
4519;SDS011;2272;49.226;8.108;2023-02-17T04:55:00;7.63;;;6.00;;
4519;SDS011;2272;49.226;8.108;2023-02-17T04:57:27;7.53;;;6.53;;
4519;SDS011;2272;49.226;8.108;2023-02-17T04:59:53;6.93;;;5.83;;
4519;SDS011;2272;49.226;8.108;2023-02-17T05:02:21;8.77;;;6.23;;
4519;SDS011;2272;49.226;8.108;2023-02-17T05:04:50;10.30;;;5.53;;
4519;SDS011;2272;49.226;8.108;2023-02-17T05:07:17;7.50;;;6.63;;
4519;SDS011;2272;49.226;8.108;2023-02-17T05:09:44;8.97;;;5.43;;
4519;SDS011;2272;49.226;8.108;2023-02-17T05:12:11;9.57;;;6.87;;
4519;SDS011;2272;49.226;8.108;2023-02-17T05:14:38;10.27;;;6.03;;
4519;SDS011;2272;49.226;8.108;2023-02-17T05:17:04;9.00;;;5.97;;
4519;SDS011;2272;49.226;8.108;2023-02-17T05:19:32;7.03;;;6.30;;
4519;SDS011;2272;49.226;8.108;2023-02-17T05:21:59;6.90;;;6.20;;
4519;SDS011;2272;49.226;8.108;2023-02-17T05:24:26;9.20;;;8.20;;
4519;SDS011;2272;49.226;8.108;2023-02-17T05:26:53;8.13;;;7.33;;
4519;SDS011;2272;49.226;8.108;2023-02-17T05:29:20;10.03;;;7.33;;
4519;SDS011;2272;49.226;8.108;2023-02-17T05:31:47;11.00;;;7.77;;
4519;SDS011;2272;49.226;8.108;2023-02-17T05:34:14;8.63;;;6.40;;
4519;SDS011;2272;49.226;8.108;2023-02-17T05:36:42;8.17;;;5.37;;
4519;SDS011;2272;49.226;8.108;2023-02-17T05:39:08;6.10;;;5.20;;
4519;SDS011;2272;49.226;8.108;2023-02-17T05:41:35;6.80;;;5.30;;
4519;SDS011;2272;49.226;8.108;2023-02-17T05:44:02;10.43;;;4.93;;
4519;SDS011;2272;49.226;8.108;2023-02-17T05:46:29;4.10;;;3.90;;
4519;SDS011;2272;49.226;8.108;2023-02-17T05:48:55;4.23;;;3.83;;
4519;SDS011;2272;49.226;8.108;2023-02-17T05:51:22;3.87;;;3.67;;
4519;SDS011;2272;49.226;8.108;2023-02-17T05:53:50;5.70;;;4.53;;
4519;SDS011;2272;49.226;8.108;2023-02-17T05:56:17;5.43;;;4.43;;
4519;SDS011;2272;49.226;8.108;2023-02-17T05:58:43;3.83;;;3.63;;
4519;SDS011;2272;49.226;8.108;2023-02-17T06:01:10;3.90;;;3.57;;
4519;SDS011;2272;49.226;8.108;2023-02-17T06:03:37;4.63;;;3.67;;
4519;SDS011;2272;49.226;8.108;2023-02-17T06:06:04;5.07;;;4.63;;
4519;SDS011;2272;49.226;8.108;2023-02-17T06:08:32;4.53;;;4.10;;
4519;SDS011;2272;49.226;8.108;2023-02-17T06:11:00;3.70;;;3.43;;
4519;SDS011;2272;49.226;8.108;2023-02-17T06:13:27;4.30;;;3.90;;
4519;SDS011;2272;49.226;8.108;2023-02-17T06:15:54;4.67;;;4.27;;
4519;SDS011;2272;49.226;8.108;2023-02-17T06:18:20;5.00;;;3.80;;
4519;SDS011;2272;49.226;8.108;2023-02-17T06:20:47;4.13;;;3.83;;
4519;SDS011;2272;49.226;8.108;2023-02-17T06:23:14;4.07;;;3.70;;
4519;SDS011;2272;49.226;8.108;2023-02-17T06:25:40;5.80;;;3.57;;
4519;SDS011;2272;49.226;8.108;2023-02-17T06:28:09;4.07;;;3.77;;
4519;SDS011;2272;49.226;8.108;2023-02-17T06:30:35;4.33;;;4.00;;
4519;SDS011;2272;49.226;8.108;2023-02-17T06:33:02;4.27;;;3.90;;
4519;SDS011;2272;49.226;8.108;2023-02-17T06:35:29;3.13;;;3.00;;
4519;SDS011;2272;49.226;8.108;2023-02-17T06:37:56;3.50;;;3.23;;
4519;SDS011;2272;49.226;8.108;2023-02-17T06:40:23;3.77;;;3.47;;
4519;SDS011;2272;49.226;8.108;2023-02-17T06:42:49;3.73;;;3.23;;
4519;SDS011;2272;49.226;8.108;2023-02-17T06:45:17;2.93;;;2.73;;
4519;SDS011;2272;49.226;8.108;2023-02-17T06:47:44;3.67;;;3.37;;
4519;SDS011;2272;49.226;8.108;2023-02-17T06:50:11;2.60;;;2.50;;
4519;SDS011;2272;49.226;8.108;2023-02-17T06:52:38;2.73;;;2.63;;
4519;SDS011;2272;49.226;8.108;2023-02-17T06:55:06;2.53;;;2.43;;
4519;SDS011;2272;49.226;8.108;2023-02-17T06:57:33;3.40;;;2.73;;
4519;SDS011;2272;49.226;8.108;2023-02-17T06:59:59;3.03;;;2.70;;
4519;SDS011;2272;49.226;8.108;2023-02-17T07:02:27;3.27;;;3.07;;
4519;SDS011;2272;49.226;8.108;2023-02-17T07:04:54;3.10;;;2.50;;
4519;SDS011;2272;49.226;8.108;2023-02-17T07:07:21;2.30;;;2.20;;
4519;SDS011;2272;49.226;8.108;2023-02-17T07:09:47;2.60;;;2.40;;
4519;SDS011;2272;49.226;8.108;2023-02-17T07:12:14;2.23;;;2.13;;
4519;SDS011;2272;49.226;8.108;2023-02-17T07:14:41;2.67;;;2.57;;
4519;SDS011;2272;49.226;8.108;2023-02-17T07:17:08;3.80;;;3.50;;
4519;SDS011;2272;49.226;8.108;2023-02-17T07:19:36;3.40;;;3.20;;
4519;SDS011;2272;49.226;8.108;2023-02-17T07:22:02;14.53;;;3.67;;
4519;SDS011;2272;49.226;8.108;2023-02-17T07:24:29;3.17;;;2.70;;
4519;SDS011;2272;49.226;8.108;2023-02-17T07:26:57;3.33;;;2.90;;
4519;SDS011;2272;49.226;8.108;2023-02-17T07:29:24;2.50;;;2.30;;
4519;SDS011;2272;49.226;8.108;2023-02-17T07:31:52;2.73;;;2.33;;
4519;SDS011;2272;49.226;8.108;2023-02-17T07:34:18;6.23;;;2.50;;
4519;SDS011;2272;49.226;8.108;2023-02-17T07:36:46;2.93;;;2.73;;
4519;SDS011;2272;49.226;8.108;2023-02-17T07:39:13;4.03;;;2.67;;
4519;SDS011;2272;49.226;8.108;2023-02-17T07:41:40;3.07;;;2.87;;
4519;SDS011;2272;49.226;8.108;2023-02-17T07:44:07;4.20;;;3.13;;
4519;SDS011;2272;49.226;8.108;2023-02-17T07:46:34;2.70;;;2.50;;
4519;SDS011;2272;49.226;8.108;2023-02-17T07:49:01;2.73;;;2.53;;
4519;SDS011;2272;49.226;8.108;2023-02-17T07:51:28;3.03;;;2.83;;
4519;SDS011;2272;49.226;8.108;2023-02-17T07:53:56;2.10;;;1.90;;
4519;SDS011;2272;49.226;8.108;2023-02-17T07:56:23;4.40;;;3.47;;
4519;SDS011;2272;49.226;8.108;2023-02-17T07:58:49;9.10;;;7.47;;
4519;SDS011;2272;49.226;8.108;2023-02-17T08:01:17;6.17;;;5.67;;
4519;SDS011;2272;49.226;8.108;2023-02-17T08:03:45;2.97;;;2.87;;
4519;SDS011;2272;49.226;8.108;2023-02-17T08:06:13;4.20;;;3.90;;
4519;SDS011;2272;49.226;8.108;2023-02-17T08:08:41;4.30;;;3.90;;
4519;SDS011;2272;49.226;8.108;2023-02-17T08:11:28;9.23;;;8.27;;
4519;SDS011;2272;49.226;8.108;2023-02-17T08:14:14;16.43;;;13.07;;
4519;SDS011;2272;49.226;8.108;2023-02-17T08:16:41;34.80;;;26.07;;
4519;SDS011;2272;49.226;8.108;2023-02-17T08:19:07;25.27;;;18.90;;
4519;SDS011;2272;49.226;8.108;2023-02-17T08:21:34;25.00;;;17.73;;
4519;SDS011;2272;49.226;8.108;2023-02-17T08:24:01;20.77;;;16.07;;
4519;SDS011;2272;49.226;8.108;2023-02-17T08:26:29;22.80;;;17.60;;
4519;SDS011;2272;49.226;8.108;2023-02-17T08:28:56;7.73;;;5.00;;
4519;SDS011;2272;49.226;8.108;2023-02-17T08:31:23;2.77;;;2.53;;
4519;SDS011;2272;49.226;8.108;2023-02-17T08:33:52;3.27;;;3.07;;
4519;SDS011;2272;49.226;8.108;2023-02-17T08:36:19;4.27;;;3.97;;
4519;SDS011;2272;49.226;8.108;2023-02-17T08:38:46;3.90;;;3.67;;
4519;SDS011;2272;49.226;8.108;2023-02-17T08:41:15;5.40;;;3.93;;
4519;SDS011;2272;49.226;8.108;2023-02-17T08:43:44;4.33;;;4.00;;
4519;SDS011;2272;49.226;8.108;2023-02-17T08:46:13;3.87;;;3.53;;
4519;SDS011;2272;49.226;8.108;2023-02-17T08:48:40;3.23;;;3.13;;
4519;SDS011;2272;49.226;8.108;2023-02-17T08:51:07;4.00;;;3.60;;
4519;SDS011;2272;49.226;8.108;2023-02-17T08:53:36;3.53;;;3.10;;
4519;SDS011;2272;49.226;8.108;2023-02-17T08:56:03;3.53;;;3.33;;
4519;SDS011;2272;49.226;8.108;2023-02-17T08:58:31;3.83;;;3.63;;
4519;SDS011;2272;49.226;8.108;2023-02-17T09:00:59;2.93;;;2.73;;
4519;SDS011;2272;49.226;8.108;2023-02-17T09:03:26;4.13;;;3.77;;
4519;SDS011;2272;49.226;8.108;2023-02-17T09:05:53;7.07;;;4.27;;
4519;SDS011;2272;49.226;8.108;2023-02-17T09:08:20;3.50;;;3.23;;
4519;SDS011;2272;49.226;8.108;2023-02-17T09:10:47;4.20;;;3.13;;
4519;SDS011;2272;49.226;8.108;2023-02-17T09:13:14;4.10;;;3.50;;
4519;SDS011;2272;49.226;8.108;2023-02-17T09:15:41;3.70;;;3.47;;
4519;SDS011;2272;49.226;8.108;2023-02-17T09:18:09;3.87;;;3.57;;
4519;SDS011;2272;49.226;8.108;2023-02-17T09:20:36;3.33;;;3.03;;
4519;SDS011;2272;49.226;8.108;2023-02-17T09:23:04;4.23;;;3.83;;
4519;SDS011;2272;49.226;8.108;2023-02-17T09:25:31;4.17;;;3.53;;
4519;SDS011;2272;49.226;8.108;2023-02-17T09:27:58;3.50;;;3.20;;
4519;SDS011;2272;49.226;8.108;2023-02-17T09:30:25;4.20;;;3.90;;
4519;SDS011;2272;49.226;8.108;2023-02-17T09:32:52;4.00;;;3.70;;
4519;SDS011;2272;49.226;8.108;2023-02-17T09:35:20;5.30;;;4.80;;
4519;SDS011;2272;49.226;8.108;2023-02-17T09:37:47;3.43;;;3.17;;
4519;SDS011;2272;49.226;8.108;2023-02-17T09:40:16;3.47;;;3.17;;
4519;SDS011;2272;49.226;8.108;2023-02-17T09:42:44;4.27;;;3.87;;
4519;SDS011;2272;49.226;8.108;2023-02-17T09:45:13;3.47;;;2.93;;
4519;SDS011;2272;49.226;8.108;2023-02-17T09:47:45;3.80;;;3.50;;
4519;SDS011;2272;49.226;8.108;2023-02-17T09:50:15;3.00;;;2.90;;
4519;SDS011;2272;49.226;8.108;2023-02-17T09:52:46;3.33;;;3.03;;
4519;SDS011;2272;49.226;8.108;2023-02-17T09:55:21;3.90;;;3.60;;
4519;SDS011;2272;49.226;8.108;2023-02-17T09:57:52;6.30;;;3.00;;
4519;SDS011;2272;49.226;8.108;2023-02-17T10:00:23;3.40;;;3.20;;
4519;SDS011;2272;49.226;8.108;2023-02-17T10:02:54;3.93;;;3.33;;
4519;SDS011;2272;49.226;8.108;2023-02-17T10:05:27;5.37;;;3.50;;
4519;SDS011;2272;49.226;8.108;2023-02-17T10:08:01;3.27;;;3.07;;
4519;SDS011;2272;49.226;8.108;2023-02-17T10:10:33;5.23;;;2.97;;
4519;SDS011;2272;49.226;8.108;2023-02-17T10:13:05;3.37;;;3.13;;
4519;SDS011;2272;49.226;8.108;2023-02-17T10:15:35;3.50;;;3.20;;
4519;SDS011;2272;49.226;8.108;2023-02-17T10:18:07;3.40;;;3.23;;
4519;SDS011;2272;49.226;8.108;2023-02-17T10:20:38;5.57;;;3.60;;
4519;SDS011;2272;49.226;8.108;2023-02-17T10:23:09;3.10;;;2.90;;
4519;SDS011;2272;49.226;8.108;2023-02-17T10:25:48;8.03;;;2.97;;
4519;SDS011;2272;49.226;8.108;2023-02-17T10:28:26;2.30;;;2.20;;
4519;SDS011;2272;49.226;8.108;2023-02-17T10:31:06;2.23;;;2.13;;
4519;SDS011;2272;49.226;8.108;2023-02-17T10:33:37;2.03;;;1.90;;
4519;SDS011;2272;49.226;8.108;2023-02-17T10:36:15;2.00;;;1.90;;
4519;SDS011;2272;49.226;8.108;2023-02-17T10:38:51;2.50;;;2.30;;
4519;SDS011;2272;49.226;8.108;2023-02-17T10:41:20;2.40;;;2.30;;
4519;SDS011;2272;49.226;8.108;2023-02-17T10:43:51;2.27;;;2.17;;
4519;SDS011;2272;49.226;8.108;2023-02-17T10:46:21;3.83;;;2.40;;
4519;SDS011;2272;49.226;8.108;2023-02-17T10:48:52;2.27;;;2.00;;
4519;SDS011;2272;49.226;8.108;2023-02-17T10:51:21;1.70;;;1.60;;
4519;SDS011;2272;49.226;8.108;2023-02-17T10:53:53;2.40;;;2.20;;
4519;SDS011;2272;49.226;8.108;2023-02-17T10:56:24;2.70;;;2.50;;
4519;SDS011;2272;49.226;8.108;2023-02-17T10:58:58;3.80;;;2.07;;
4519;SDS011;2272;49.226;8.108;2023-02-17T11:01:30;3.77;;;2.40;;
4519;SDS011;2272;49.226;8.108;2023-02-17T11:03:59;2.73;;;2.47;;
4519;SDS011;2272;49.226;8.108;2023-02-17T11:06:27;2.80;;;2.60;;
4519;SDS011;2272;49.226;8.108;2023-02-17T11:08:57;3.67;;;3.27;;
4519;SDS011;2272;49.226;8.108;2023-02-17T11:11:26;3.00;;;2.60;;
4519;SDS011;2272;49.226;8.108;2023-02-17T11:14:00;3.67;;;3.37;;
4519;SDS011;2272;49.226;8.108;2023-02-17T11:16:35;3.77;;;3.30;;
4519;SDS011;2272;49.226;8.108;2023-02-17T11:19:04;4.43;;;4.03;;
4519;SDS011;2272;49.226;8.108;2023-02-17T11:21:32;5.37;;;3.90;;
4519;SDS011;2272;49.226;8.108;2023-02-17T11:24:02;7.20;;;5.40;;
4519;SDS011;2272;49.226;8.108;2023-02-17T11:26:31;18.13;;;5.30;;
4519;SDS011;2272;49.226;8.108;2023-02-17T11:29:07;6.23;;;4.50;;
4519;SDS011;2272;49.226;8.108;2023-02-17T11:31:34;6.43;;;5.20;;
4519;SDS011;2272;49.226;8.108;2023-02-17T11:34:11;7.00;;;5.00;;
4519;SDS011;2272;49.226;8.108;2023-02-17T11:36:39;3.83;;;3.40;;
4519;SDS011;2272;49.226;8.108;2023-02-17T11:39:17;4.93;;;3.07;;
4519;SDS011;2272;49.226;8.108;2023-02-17T11:41:45;3.17;;;2.87;;
4519;SDS011;2272;49.226;8.108;2023-02-17T11:44:20;3.60;;;3.30;;
4519;SDS011;2272;49.226;8.108;2023-02-17T11:46:49;2.80;;;2.60;;
4519;SDS011;2272;49.226;8.108;2023-02-17T11:49:28;2.67;;;2.50;;
4519;SDS011;2272;49.226;8.108;2023-02-17T11:52:32;3.70;;;3.40;;
4519;SDS011;2272;49.226;8.108;2023-02-17T11:55:25;4.23;;;3.83;;
4519;SDS011;2272;49.226;8.108;2023-02-17T11:58:03;6.27;;;4.00;;
4519;SDS011;2272;49.226;8.108;2023-02-17T12:00:44;5.80;;;4.30;;
4519;SDS011;2272;49.226;8.108;2023-02-17T12:03:29;4.10;;;3.80;;
4519;SDS011;2272;49.226;8.108;2023-02-17T12:06:09;13.90;;;8.03;;
4519;SDS011;2272;49.226;8.108;2023-02-17T12:08:45;12.93;;;7.87;;
4519;SDS011;2272;49.226;8.108;2023-02-17T12:11:29;16.63;;;10.33;;
4519;SDS011;2272;49.226;8.108;2023-02-17T12:14:05;14.03;;;8.70;;
4519;SDS011;2272;49.226;8.108;2023-02-17T12:16:42;5.70;;;5.10;;
4519;SDS011;2272;49.226;8.108;2023-02-17T12:19:33;20.00;;;11.30;;
4519;SDS011;2272;49.226;8.108;2023-02-17T12:22:11;20.33;;;12.20;;
4519;SDS011;2272;49.226;8.108;2023-02-17T12:24:57;14.13;;;8.27;;
4519;SDS011;2272;49.226;8.108;2023-02-17T12:27:42;15.73;;;10.07;;
4519;SDS011;2272;49.226;8.108;2023-02-17T12:30:22;13.50;;;8.27;;
4519;SDS011;2272;49.226;8.108;2023-02-17T12:35:56;7.57;;;5.27;;
4519;SDS011;2272;49.226;8.108;2023-02-17T12:38:29;8.60;;;4.67;;
4519;SDS011;2272;49.226;8.108;2023-02-17T12:40:57;3.43;;;3.13;;
4519;SDS011;2272;49.226;8.108;2023-02-17T12:43:33;6.63;;;3.90;;
4519;SDS011;2272;49.226;8.108;2023-02-17T12:46:04;3.33;;;3.10;;
4519;SDS011;2272;49.226;8.108;2023-02-17T12:48:35;4.83;;;3.83;;
4519;SDS011;2272;49.226;8.108;2023-02-17T12:51:05;2.77;;;2.57;;
4519;SDS011;2272;49.226;8.108;2023-02-17T12:53:38;43.77;;;22.00;;
4519;SDS011;2272;49.226;8.108;2023-02-17T12:56:18;3.80;;;3.50;;
4519;SDS011;2272;49.226;8.108;2023-02-17T12:59:04;6.73;;;4.70;;
4519;SDS011;2272;49.226;8.108;2023-02-17T13:01:37;4.13;;;3.93;;
4519;SDS011;2272;49.226;8.108;2023-02-17T13:04:16;3.23;;;3.03;;
4519;SDS011;2272;49.226;8.108;2023-02-17T13:06:45;3.43;;;3.10;;
4519;SDS011;2272;49.226;8.108;2023-02-17T13:09:19;3.67;;;3.37;;
4519;SDS011;2272;49.226;8.108;2023-02-17T13:11:52;3.70;;;3.40;;
4519;SDS011;2272;49.226;8.108;2023-02-17T13:14:25;4.03;;;3.70;;
4519;SDS011;2272;49.226;8.108;2023-02-17T13:17:03;3.87;;;3.53;;
4519;SDS011;2272;49.226;8.108;2023-02-17T13:19:30;4.40;;;4.00;;
4519;SDS011;2272;49.226;8.108;2023-02-17T13:21:59;4.30;;;3.97;;
4519;SDS011;2272;49.226;8.108;2023-02-17T13:24:31;4.80;;;3.83;;
4519;SDS011;2272;49.226;8.108;2023-02-17T13:27:08;4.73;;;4.33;;
4519;SDS011;2272;49.226;8.108;2023-02-17T13:29:38;8.93;;;4.30;;
4519;SDS011;2272;49.226;8.108;2023-02-17T13:32:06;4.77;;;4.37;;
4519;SDS011;2272;49.226;8.108;2023-02-17T13:34:37;5.50;;;4.57;;
4519;SDS011;2272;49.226;8.108;2023-02-17T13:37:14;5.80;;;4.47;;
4519;SDS011;2272;49.226;8.108;2023-02-17T13:39:43;6.57;;;3.27;;
4519;SDS011;2272;49.226;8.108;2023-02-17T13:45:09;4.20;;;3.90;;
4519;SDS011;2272;49.226;8.108;2023-02-17T13:47:38;5.30;;;3.97;;
4519;SDS011;2272;49.226;8.108;2023-02-17T13:50:20;8.13;;;3.73;;
4519;SDS011;2272;49.226;8.108;2023-02-17T13:52:53;6.57;;;5.90;;
4519;SDS011;2272;49.226;8.108;2023-02-17T13:55:20;4.20;;;3.80;;
4519;SDS011;2272;49.226;8.108;2023-02-17T13:57:50;4.40;;;4.03;;
4519;SDS011;2272;49.226;8.108;2023-02-17T14:00:20;5.90;;;5.00;;
4519;SDS011;2272;49.226;8.108;2023-02-17T14:02:49;4.50;;;3.97;;
4519;SDS011;2272;49.226;8.108;2023-02-17T14:05:18;7.50;;;5.67;;
4519;SDS011;2272;49.226;8.108;2023-02-17T14:07:47;4.20;;;3.90;;
4519;SDS011;2272;49.226;8.108;2023-02-17T14:10:16;6.73;;;4.73;;
4519;SDS011;2272;49.226;8.108;2023-02-17T14:12:44;4.53;;;4.10;;
4519;SDS011;2272;49.226;8.108;2023-02-17T14:15:13;7.93;;;4.83;;
4519;SDS011;2272;49.226;8.108;2023-02-17T14:17:42;8.00;;;4.30;;
4519;SDS011;2272;49.226;8.108;2023-02-17T14:20:23;7.40;;;5.97;;
4519;SDS011;2272;49.226;8.108;2023-02-17T14:22:57;6.33;;;5.60;;
4519;SDS011;2272;49.226;8.108;2023-02-17T14:25:30;4.67;;;3.73;;
4519;SDS011;2272;49.226;8.108;2023-02-17T14:27:58;5.10;;;4.60;;
4519;SDS011;2272;49.226;8.108;2023-02-17T14:30:28;6.33;;;5.23;;
4519;SDS011;2272;49.226;8.108;2023-02-17T14:33:01;7.43;;;6.67;;
4519;SDS011;2272;49.226;8.108;2023-02-17T14:35:29;4.80;;;4.13;;
4519;SDS011;2272;49.226;8.108;2023-02-17T14:38:05;6.20;;;3.73;;
4519;SDS011;2272;49.226;8.108;2023-02-17T14:40:33;5.30;;;4.37;;
4519;SDS011;2272;49.226;8.108;2023-02-17T14:42:59;3.27;;;3.10;;
4519;SDS011;2272;49.226;8.108;2023-02-17T14:45:26;5.27;;;4.67;;
4519;SDS011;2272;49.226;8.108;2023-02-17T14:47:53;5.57;;;5.03;;
4519;SDS011;2272;49.226;8.108;2023-02-17T14:50:21;5.20;;;4.00;;
4519;SDS011;2272;49.226;8.108;2023-02-17T14:52:48;6.77;;;5.60;;
4519;SDS011;2272;49.226;8.108;2023-02-17T14:55:17;5.60;;;5.10;;
4519;SDS011;2272;49.226;8.108;2023-02-17T14:57:53;5.37;;;4.57;;
4519;SDS011;2272;49.226;8.108;2023-02-17T15:00:20;6.57;;;6.00;;
4519;SDS011;2272;49.226;8.108;2023-02-17T15:02:47;6.43;;;5.50;;
4519;SDS011;2272;49.226;8.108;2023-02-17T15:05:15;6.10;;;5.60;;
4519;SDS011;2272;49.226;8.108;2023-02-17T15:07:43;6.10;;;4.53;;
4519;SDS011;2272;49.226;8.108;2023-02-17T15:10:13;4.80;;;4.37;;
4519;SDS011;2272;49.226;8.108;2023-02-17T15:12:44;7.93;;;5.90;;
4519;SDS011;2272;49.226;8.108;2023-02-17T15:15:12;8.30;;;6.63;;
4519;SDS011;2272;49.226;8.108;2023-02-17T15:17:39;6.10;;;5.60;;
4519;SDS011;2272;49.226;8.108;2023-02-17T15:20:06;7.53;;;6.17;;
4519;SDS011;2272;49.226;8.108;2023-02-17T15:22:35;8.43;;;6.90;;
4519;SDS011;2272;49.226;8.108;2023-02-17T15:25:10;12.47;;;5.50;;
4519;SDS011;2272;49.226;8.108;2023-02-17T15:27:39;8.57;;;5.70;;
4519;SDS011;2272;49.226;8.108;2023-02-17T15:30:09;6.40;;;5.90;;
4519;SDS011;2272;49.226;8.108;2023-02-17T15:32:36;6.07;;;5.33;;